Time;durP1;ratioP1;P1;durP2;ratioP2;P2;SDS_P1;SDS_P2;PMS_P1;PMS_P2;Temp;Humidity;BMP_temperature;BMP_pressure;BME280_temperature;BME280_humidity;BME280_pressure;Samples;Min_cycle;Max_cycle;Signal;HPM_P1;HPM_P2
2021/01/08 00:00:45;;;;;;;3.10;2.05;;;0.40;82.50;;;;;;5039798;28;20029;-72
2021/01/08 00:03:11;;;;;;;3.15;2.38;;;0.40;82.60;;;;;;5039717;28;20052;-72
2021/01/08 00:05:37;;;;;;;3.03;2.28;;;0.30;82.50;;;;;;5039704;28;20092;-72
2021/01/08 00:08:04;;;;;;;3.65;2.75;;;0.40;82.10;;;;;;5039600;28;20026;-72
2021/01/08 00:10:29;;;;;;;2.83;2.20;;;0.30;82.50;;;;;;5039836;28;20321;-72
2021/01/08 00:12:55;;;;;;;3.38;2.45;;;0.40;83.20;;;;;;5039578;28;20017;-72
2021/01/08 00:15:21;;;;;;;2.90;2.20;;;0.30;83.70;;;;;;5039436;28;20341;-72
2021/01/08 00:17:46;;;;;;;3.13;1.70;;;0.40;83.70;;;;;;5039431;28;20025;-72
2021/01/08 00:20:13;;;;;;;4.00;2.70;;;0.30;84.00;;;;;;5039386;28;20026;-72
2021/01/08 00:22:38;;;;;;;4.75;2.85;;;0.30;84.30;;;;;;5039373;28;20105;-72
2021/01/08 00:25:04;;;;;;;3.05;2.28;;;0.30;84.30;;;;;;5039190;28;20072;-72
2021/01/08 00:27:30;;;;;;;3.72;2.53;;;0.20;84.00;;;;;;5039470;28;20021;-72
2021/01/08 00:29:56;;;;;;;3.03;2.10;;;0.20;83.70;;;;;;5039133;28;20037;-71
2021/01/08 00:32:21;;;;;;;3.50;2.33;;;0.30;82.30;;;;;;5039430;28;20022;-72
2021/01/08 00:34:48;;;;;;;3.78;2.38;;;0.30;82.40;;;;;;5039191;28;20091;-72
2021/01/08 00:37:14;;;;;;;4.45;2.50;;;0.30;82.40;;;;;;5039092;28;20410;-72
2021/01/08 00:39:41;;;;;;;2.67;2.05;;;0.20;82.30;;;;;;5039122;28;20065;-72
2021/01/08 00:42:07;;;;;;;3.53;2.15;;;0.20;81.60;;;;;;5039040;28;20014;-72
2021/01/08 00:44:33;;;;;;;3.25;2.25;;;0.20;81.30;;;;;;5039181;28;20056;-72
2021/01/08 00:46:59;;;;;;;4.30;2.13;;;0.20;81.90;;;;;;5039175;28;20417;-72
2021/01/08 00:49:25;;;;;;;3.33;2.30;;;0.20;81.90;;;;;;5038832;28;20033;-72
2021/01/08 00:51:51;;;;;;;3.35;2.17;;;0.20;81.80;;;;;;5038863;28;20548;-72
2021/01/08 00:54:17;;;;;;;4.55;2.53;;;0.30;80.60;;;;;;5039087;28;20111;-72
2021/01/08 00:56:43;;;;;;;2.33;1.80;;;0.30;79.60;;;;;;5038676;28;20061;-72
2021/01/08 00:59:08;;;;;;;3.20;2.53;;;0.40;79.20;;;;;;5038957;28;20048;-72
2021/01/08 01:01:34;;;;;;;3.40;1.98;;;0.40;78.70;;;;;;5038664;28;20026;-72
2021/01/08 01:04:00;;;;;;;2.47;1.73;;;0.40;77.60;;;;;;5038583;28;20318;-72
2021/01/08 01:06:31;;;;;;;2.45;1.83;;;0.50;77.00;;;;;;5038578;28;20053;-72
2021/01/08 01:08:57;;;;;;;2.50;2.08;;;0.60;76.50;;;;;;5038715;28;20038;-71
2021/01/08 01:11:25;;;;;;;2.53;1.88;;;0.70;76.10;;;;;;5038458;28;20045;-71
2021/01/08 01:13:55;;;;;;;2.85;1.88;;;0.80;74.80;;;;;;5038686;28;20026;-72
2021/01/08 01:16:21;;;;;;;3.97;2.55;;;0.90;74.30;;;;;;5038490;28;20024;-72
2021/01/08 01:18:48;;;;;;;3.08;2.20;;;1.00;73.70;;;;;;5038378;28;20361;-71
2021/01/08 01:21:15;;;;;;;3.25;2.25;;;1.10;73.30;;;;;;5038323;28;20410;-72
2021/01/08 01:23:40;;;;;;;3.10;2.20;;;1.30;72.60;;;;;;5038243;28;20029;-71
2021/01/08 01:26:07;;;;;;;4.60;2.17;;;1.30;72.80;;;;;;5037998;28;20045;-71
2021/01/08 01:28:33;;;;;;;2.75;2.13;;;1.40;72.20;;;;;;5038340;28;20037;-71
2021/01/08 01:30:59;;;;;;;3.53;2.70;;;1.50;71.30;;;;;;5037629;28;20025;-72
2021/01/08 01:33:25;;;;;;;2.97;2.17;;;1.60;71.20;;;;;;5037993;28;20027;-72
2021/01/08 01:35:52;;;;;;;2.60;2.25;;;1.70;70.70;;;;;;5038539;28;20022;-71
2021/01/08 01:38:18;;;;;;;3.00;1.95;;;1.80;71.00;;;;;;5036924;28;20092;-71
2021/01/08 01:40:44;;;;;;;3.33;2.47;;;1.70;70.50;;;;;;5038183;28;20032;-72
2021/01/08 01:43:09;;;;;;;2.20;1.67;;;1.70;70.50;;;;;;5037847;28;20329;-71
2021/01/08 01:45:35;;;;;;;3.05;2.22;;;1.70;70.90;;;;;;5037987;28;20029;-71
2021/01/08 01:48:01;;;;;;;2.45;1.63;;;1.60;70.70;;;;;;5036679;28;20025;-72
2021/01/08 01:50:27;;;;;;;2.83;1.90;;;1.50;71.80;;;;;;5037722;28;20027;-72
2021/01/08 01:52:54;;;;;;;3.72;2.22;;;1.40;73.10;;;;;;5037632;28;20108;-72
2021/01/08 01:55:21;;;;;;;3.80;2.20;;;1.20;74.40;;;;;;5037790;28;20068;-71
2021/01/08 01:57:46;;;;;;;2.45;1.67;;;1.00;75.20;;;;;;5037852;28;20033;-72
2021/01/08 02:00:12;;;;;;;2.83;2.13;;;0.80;76.20;;;;;;5037588;28;20032;-72
2021/01/08 02:02:48;;;;;;;2.28;1.70;;;0.60;76.90;;;;;;5037498;28;20080;-72
2021/01/08 02:05:15;;;;;;;;;;;0.50;77.70;;;;;;5038156;28;20021;-71
2021/01/08 02:08:15;;;;;;;3.13;2.20;;;0.40;78.00;;;;;;5036403;28;19956;-72
2021/01/08 02:10:49;;;;;;;2.58;1.75;;;0.30;77.70;;;;;;5037444;28;20040;-72
2021/01/08 02:13:23;;;;;;;2.78;2.00;;;0.20;78.70;;;;;;5037588;28;20126;-72
2021/01/08 02:15:50;;;;;;;3.45;2.22;;;0.30;77.40;;;;;;5037244;28;20028;-72
2021/01/08 02:18:16;;;;;;;5.47;2.08;;;0.40;77.90;;;;;;5036199;28;20124;-72
2021/01/08 02:20:43;;;;;;;3.05;1.90;;;0.30;77.60;;;;;;5037452;28;20049;-72
2021/01/08 02:23:21;;;;;;;3.05;1.90;;;0.30;77.30;;;;;;5037109;28;20092;-72
2021/01/08 02:25:47;;;;;;;3.05;2.20;;;0.20;77.80;;;;;;5037026;28;20144;-72
2021/01/08 02:28:25;;;;;;;2.22;1.60;;;0.20;79.00;;;;;;5036951;28;20398;-71
2021/01/08 02:30:52;;;;;;;2.67;1.60;;;0.20;77.90;;;;;;5037218;28;20028;-72
2021/01/08 02:33:19;;;;;;;2.47;1.55;;;0.30;75.90;;;;;;5037059;28;20097;-71
2021/01/08 02:35:48;;;;;;;2.30;1.80;;;0.30;75.20;;;;;;5037205;28;20025;-72
2021/01/08 02:38:15;;;;;;;2.33;1.63;;;0.40;75.60;;;;;;5036899;28;20449;-72
2021/01/08 02:40:44;;;;;;;2.95;1.83;;;0.50;74.10;;;;;;5037156;28;20299;-71
2021/01/08 02:43:11;;;;;;;2.80;1.90;;;0.70;72.60;;;;;;5035917;28;20065;-72
2021/01/08 02:45:36;;;;;;;2.67;1.83;;;0.90;72.40;;;;;;5036799;28;20049;-72
2021/01/08 02:48:02;;;;;;;2.10;1.73;;;1.20;70.50;;;;;;5035663;28;20499;-71
2021/01/08 02:50:28;;;;;;;2.90;1.63;;;1.50;68.40;;;;;;5036730;28;20352;-71
2021/01/08 02:52:59;;;;;;;2.63;1.42;;;1.70;67.90;;;;;;5036784;28;20053;-71
2021/01/08 02:55:31;;;;;;;2.00;1.70;;;1.80;66.70;;;;;;5036959;28;20045;-71
2021/01/08 02:58:02;;;;;;;4.25;2.17;;;1.80;66.60;;;;;;5036745;28;20056;-71
2021/01/08 03:00:29;;;;;;;2.63;1.63;;;1.90;66.30;;;;;;5036604;28;20025;-71
2021/01/08 03:02:57;;;;;;;2.78;1.60;;;1.90;65.20;;;;;;5036661;28;20025;-72
2021/01/08 03:05:23;;;;;;;2.35;1.67;;;1.90;67.60;;;;;;5036596;28;20057;-72
2021/01/08 03:07:50;;;;;;;2.67;1.63;;;1.80;67.80;;;;;;5036793;28;20043;-72
2021/01/08 03:10:17;;;;;;;1.95;1.48;;;1.80;65.80;;;;;;5036502;28;20021;-72
2021/01/08 03:12:52;;;;;;;2.75;1.75;;;1.70;67.90;;;;;;5036581;28;20033;-72
2021/01/08 03:15:18;;;;;;;3.08;1.55;;;1.60;69.50;;;;;;5036730;28;20026;-72
2021/01/08 03:17:44;;;;;;;1.58;1.08;;;1.40;71.30;;;;;;5036532;28;20030;-72
2021/01/08 03:20:10;;;;;;;1.70;1.30;;;1.30;72.80;;;;;;5036452;28;20033;-72
2021/01/08 03:22:36;;;;;;;2.03;1.50;;;1.10;73.70;;;;;;5036480;28;20055;-72
2021/01/08 03:25:02;;;;;;;2.10;1.58;;;0.90;73.10;;;;;;5036243;28;20036;-72
2021/01/08 03:27:28;;;;;;;2.35;1.40;;;0.80;73.80;;;;;;5036692;28;20037;-72
2021/01/08 03:29:53;;;;;;;2.10;1.40;;;0.60;73.90;;;;;;5036383;28;20052;-72
2021/01/08 03:32:19;;;;;;;2.83;1.90;;;0.50;74.70;;;;;;5036404;28;20045;-72
2021/01/08 03:34:45;;;;;;;2.63;1.83;;;0.50;73.90;;;;;;5036359;28;20021;-72
2021/01/08 03:37:11;;;;;;;3.85;1.90;;;0.40;74.80;;;;;;5036358;28;20056;-71
2021/01/08 03:39:36;;;;;;;2.75;2.03;;;0.20;74.80;;;;;;5036218;28;20025;-71
2021/01/08 03:42:02;;;;;;;2.05;1.70;;;0.20;75.30;;;;;;5036231;28;20069;-71
2021/01/08 03:44:28;;;;;;;4.30;1.25;;;0.20;75.00;;;;;;5036175;28;20025;-72
2021/01/08 03:46:53;;;;;;;2.65;1.80;;;0.20;73.40;;;;;;5036301;28;20025;-71
2021/01/08 03:49:19;;;;;;;2.30;1.52;;;0.20;73.70;;;;;;5036395;28;20029;-71
2021/01/08 03:51:45;;;;;;;2.30;1.52;;;0.20;73.90;;;;;;5036194;28;20361;-72
2021/01/08 03:54:10;;;;;;;5.70;1.52;;;0.20;73.70;;;;;;5036354;28;20108;-71
2021/01/08 03:56:36;;;;;;;2.47;1.55;;;0.10;75.00;;;;;;5039824;28;20325;-72
2021/01/08 03:59:02;;;;;;;2.20;1.52;;;0.00;75.90;;;;;;5039879;28;20037;-71
2021/01/08 04:01:27;;;;;;;2.25;1.58;;;0.00;76.90;;;;;;5038753;28;20483;-72
2021/01/08 04:03:53;;;;;;;2.65;1.80;;;0.00;76.80;;;;;;5039762;28;20026;-72
2021/01/08 04:06:19;;;;;;;2.30;1.45;;;0.00;76.20;;;;;;5039679;28;20056;-71
2021/01/08 04:08:44;;;;;;;1.90;1.42;;;0.00;75.90;;;;;;5039562;28;20075;-72
2021/01/08 04:11:10;;;;;;;2.30;1.38;;;0.00;74.00;;;;;;5039628;28;20029;-71
2021/01/08 04:13:36;;;;;;;3.13;1.60;;;0.10;73.80;;;;;;5039558;28;20071;-71
2021/01/08 04:16:01;;;;;;;1.80;1.35;;;0.00;74.30;;;;;;5039802;28;20416;-71
2021/01/08 04:18:27;;;;;;;1.75;1.27;;;-0.10;75.10;;;;;;5039427;28;20130;-72
2021/01/08 04:20:52;;;;;;;2.13;1.60;;;0.00;73.40;;;;;;5039443;28;20034;-71
2021/01/08 04:23:18;;;;;;;2.47;1.80;;;0.10;72.80;;;;;;5039365;28;20033;-71
2021/01/08 04:25:44;;;;;;;1.92;1.50;;;0.30;71.60;;;;;;5039169;28;20418;-71
2021/01/08 04:28:09;;;;;;;2.72;1.80;;;0.30;70.90;;;;;;5039241;28;20033;-71
2021/01/08 04:30:35;;;;;;;3.15;1.80;;;0.30;71.00;;;;;;5039525;28;20026;-71
2021/01/08 04:33:01;;;;;;;3.65;1.80;;;0.30;71.20;;;;;;5039189;28;20028;-71
2021/01/08 04:35:26;;;;;;;2.33;1.70;;;0.20;69.60;;;;;;5039156;28;20377;-71
2021/01/08 04:37:52;;;;;;;2.22;1.67;;;0.30;71.30;;;;;;5039147;28;20058;-71
2021/01/08 04:40:19;;;;;;;2.92;1.65;;;0.40;68.10;;;;;;5038006;28;20132;-71
2021/01/08 04:42:45;;;;;;;2.28;1.67;;;0.40;68.30;;;;;;5038983;28;20029;-71
2021/01/08 04:45:11;;;;;;;2.97;1.63;;;0.30;68.90;;;;;;5039026;28;20025;-71
2021/01/08 04:47:37;;;;;;;2.92;1.50;;;0.20;70.20;;;;;;5038944;28;20053;-71
2021/01/08 04:50:04;;;;;;;2.67;1.73;;;0.30;69.10;;;;;;5039075;28;20053;-71
2021/01/08 04:52:32;;;;;;;3.35;1.98;;;0.20;69.40;;;;;;5038898;28;20025;-71
2021/01/08 04:54:58;;;;;;;2.03;1.38;;;0.10;69.30;;;;;;5038720;28;20021;-71
2021/01/08 04:57:26;;;;;;;2.55;1.50;;;0.00;69.70;;;;;;5039043;28;20422;-71
2021/01/08 04:59:52;;;;;;;2.15;1.73;;;0.10;69.20;;;;;;5039025;28;20029;-71
2021/01/08 05:02:18;;;;;;;2.22;1.63;;;0.00;69.50;;;;;;5039016;28;20056;-71
2021/01/08 05:04:44;;;;;;;2.00;1.70;;;0.00;69.60;;;;;;5038591;28;20418;-71
2021/01/08 05:07:10;;;;;;;1.80;1.30;;;-0.10;70.10;;;;;;5037971;28;20079;-71
2021/01/08 05:09:35;;;;;;;2.28;1.50;;;0.00;70.20;;;;;;5038486;28;20025;-71
2021/01/08 05:12:01;;;;;;;1.63;1.10;;;0.00;69.10;;;;;;5037457;28;20025;-71
2021/01/08 05:14:27;;;;;;;1.80;1.10;;;0.10;68.70;;;;;;5038726;28;20056;-71
2021/01/08 05:16:57;;;;;;;2.13;1.42;;;0.20;67.50;;;;;;5037359;28;20076;-71
2021/01/08 05:19:26;;;;;;;2.17;1.42;;;0.30;67.00;;;;;;5038377;28;20025;-71
2021/01/08 05:21:55;;;;;;;2.85;1.35;;;0.30;66.90;;;;;;5038564;28;20083;-71
2021/01/08 05:24:24;;;;;;;1.77;1.30;;;0.40;66.60;;;;;;5038481;28;20025;-71
2021/01/08 05:26:53;;;;;;;1.80;1.40;;;0.30;66.80;;;;;;5038193;28;20057;-71
2021/01/08 05:29:18;;;;;;;2.20;1.15;;;0.40;66.10;;;;;;5037049;28;20033;-71
2021/01/08 05:31:47;;;;;;;2.08;1.40;;;0.40;66.10;;;;;;5037050;28;20322;-71
2021/01/08 05:34:12;;;;;;;2.65;1.42;;;0.50;65.40;;;;;;5037990;28;20053;-71
2021/01/08 05:36:38;;;;;;;2.15;1.65;;;0.60;65.70;;;;;;5036932;28;20053;-71
2021/01/08 05:39:04;;;;;;;3.78;1.88;;;0.50;66.40;;;;;;5038213;28;20030;-71
2021/01/08 05:41:32;;;;;;;2.22;1.60;;;0.30;67.50;;;;;;5037990;28;20030;-71
2021/01/08 05:43:59;;;;;;;2.45;1.50;;;0.20;67.70;;;;;;5038126;28;20025;-71
2021/01/08 05:46:31;;;;;;;3.10;1.63;;;0.20;67.20;;;;;;5036741;28;20178;-71
2021/01/08 05:49:05;;;;;;;2.28;1.50;;;0.20;67.30;;;;;;5038145;28;20056;-71
2021/01/08 05:51:32;;;;;;;3.20;1.60;;;0.10;68.10;;;;;;5037768;28;20052;-71
2021/01/08 05:53:59;;;;;;;1.70;1.20;;;-0.10;67.80;;;;;;5037939;28;20079;-71
2021/01/08 05:56:26;;;;;;;2.53;1.50;;;0.00;67.90;;;;;;5036736;28;20032;-71
2021/01/08 05:58:52;;;;;;;1.98;1.20;;;0.10;66.90;;;;;;5037597;28;20417;-71
2021/01/08 06:01:18;;;;;;;1.58;1.05;;;0.20;69.30;;;;;;5037569;28;20083;-71
2021/01/08 06:03:45;;;;;;;2.05;1.20;;;0.30;66.00;;;;;;5037497;28;20074;-71
2021/01/08 06:06:12;;;;;;;2.65;1.52;;;0.40;65.90;;;;;;5037423;28;20025;-71
2021/01/08 06:08:50;;;;;;;2.10;1.30;;;0.50;65.90;;;;;;5037372;28;20040;-71
2021/01/08 06:11:28;;;;;;;2.47;1.50;;;0.50;65.20;;;;;;5037398;28;20433;-71
2021/01/08 06:14:01;;;;;;;1.70;1.10;;;0.50;66.20;;;;;;5037292;28;20329;-71
2021/01/08 06:16:35;;;;;;;1.67;1.05;;;0.30;67.20;;;;;;5037725;28;20100;-71
2021/01/08 06:19:02;;;;;;;1.80;0.90;;;0.20;66.50;;;;;;5037291;28;20029;-71
2021/01/08 06:21:36;;;;;;;1.55;0.88;;;0.30;65.60;;;;;;5037206;28;20036;-71
2021/01/08 06:24:02;;;;;;;2.28;1.10;;;0.40;65.20;;;;;;5037155;28;20037;-71
2021/01/08 06:26:31;;;;;;;1.58;1.23;;;0.50;64.90;;;;;;5036876;28;20049;-71
2021/01/08 06:29:10;;;;;;;1.88;0.98;;;0.50;64.40;;;;;;5037019;28;20064;-72
2021/01/08 06:31:45;;;;;;;2.03;1.30;;;0.60;64.40;;;;;;5037148;28;20029;-71
2021/01/08 06:34:11;;;;;;;1.67;0.97;;;0.60;65.20;;;;;;5036957;28;20025;-71
2021/01/08 06:36:45;;;;;;;2.22;1.15;;;0.60;65.30;;;;;;5037035;28;20032;-71
2021/01/08 06:39:21;;;;;;;1.77;1.10;;;0.50;65.60;;;;;;5037066;28;20036;-71
2021/01/08 06:41:52;;;;;;;1.73;1.10;;;0.50;65.50;;;;;;5037003;28;20149;-71
2021/01/08 06:44:24;;;;;;;2.65;1.30;;;0.60;65.40;;;;;;5036829;28;20048;-71
2021/01/08 06:46:52;;;;;;;1.55;1.10;;;0.60;64.90;;;;;;5036894;28;20119;-71
2021/01/08 06:49:19;;;;;;;1.75;1.10;;;0.60;65.50;;;;;;5035658;28;20033;-71
2021/01/08 06:51:45;;;;;;;1.83;1.50;;;0.50;66.10;;;;;;5037082;28;20021;-72
2021/01/08 06:54:12;;;;;;;2.08;1.15;;;0.40;66.60;;;;;;5035582;28;20032;-71
2021/01/08 06:56:45;;;;;;;1.98;1.52;;;0.40;66.50;;;;;;5037231;28;20034;-71
2021/01/08 06:59:18;;;;;;;2.40;1.63;;;0.50;67.10;;;;;;5036627;28;20132;-71
2021/01/08 07:01:57;;;;;;;2.47;1.40;;;0.60;66.40;;;;;;5035681;28;20100;-71
2021/01/08 07:04:29;;;;;;;2.40;1.50;;;0.60;66.40;;;;;;5036739;28;20417;-72
2021/01/08 07:06:58;;;;;;;2.47;1.73;;;0.60;66.20;;;;;;5036825;28;20291;-72
2021/01/08 07:09:34;;;;;;;2.28;1.40;;;0.70;66.90;;;;;;5036506;28;20034;-72
2021/01/08 07:12:01;;;;;;;1.77;1.45;;;0.60;65.90;;;;;;5036879;28;20032;-72
2021/01/08 07:14:28;;;;;;;1.73;1.17;;;0.50;66.20;;;;;;5036521;28;20033;-72
2021/01/08 07:16:55;;;;;;;3.00;1.70;;;0.40;66.40;;;;;;5036712;28;20104;-72
2021/01/08 07:19:23;;;;;;;2.35;1.40;;;0.30;66.10;;;;;;5036512;28;20032;-71
2021/01/08 07:21:51;;;;;;;2.33;1.33;;;0.40;66.50;;;;;;5035710;28;20091;-71
2021/01/08 07:24:19;;;;;;;2.20;1.52;;;0.40;66.50;;;;;;5036557;28;20413;-71
2021/01/08 07:26:46;;;;;;;1.92;1.50;;;0.40;66.90;;;;;;5036285;28;20456;-72
2021/01/08 07:29:12;;;;;;;2.45;1.70;;;0.50;66.20;;;;;;5037735;28;20422;-71
2021/01/08 07:31:39;;;;;;;2.75;1.70;;;0.60;66.90;;;;;;5040636;28;20044;-71
2021/01/08 07:34:07;;;;;;;3.47;1.90;;;0.50;67.30;;;;;;5040529;28;20294;-72
2021/01/08 07:36:34;;;;;;;2.45;1.40;;;0.30;67.70;;;;;;5040611;28;20018;-72
2021/01/08 07:39:01;;;;;;;2.47;1.88;;;0.10;68.30;;;;;;5040432;28;20049;-72
2021/01/08 07:41:33;;;;;;;2.78;1.63;;;0.30;67.30;;;;;;5040221;28;20053;-71
2021/01/08 07:44:00;;;;;;;3.10;1.42;;;0.30;67.50;;;;;;5040041;28;20033;-72
2021/01/08 07:46:30;;;;;;;2.67;1.58;;;0.40;66.60;;;;;;5040298;28;20049;-71
2021/01/08 07:48:58;;;;;;;2.28;1.20;;;0.50;66.40;;;;;;5040000;28;20063;-71
2021/01/08 07:51:43;;;;;;;2.92;1.20;;;0.60;66.60;;;;;;5040047;28;20115;-71
2021/01/08 07:54:09;;;;;;;2.13;1.42;;;0.80;65.40;;;;;;5040131;28;20025;-72
2021/01/08 07:56:35;;;;;;;2.60;1.30;;;0.90;65.20;;;;;;5039894;28;20022;-71
2021/01/08 07:59:05;;;;;;;4.32;2.17;;;1.00;64.90;;;;;;5040133;28;20056;-72
2021/01/08 08:01:34;;;;;;;2.05;1.40;;;1.20;64.50;;;;;;5039840;28;20317;-72
2021/01/08 08:04:05;;;;;;;1.80;1.42;;;1.30;63.80;;;;;;5039799;28;20152;-72
2021/01/08 08:06:32;;;;;;;2.30;1.35;;;1.30;63.40;;;;;;5040075;28;20052;-72
2021/01/08 08:09:04;;;;;;;1.55;1.00;;;1.40;63.50;;;;;;5039626;28;20025;-72
2021/01/08 08:11:33;;;;;;;1.98;1.52;;;1.40;64.00;;;;;;5039692;28;20025;-72
2021/01/08 08:13:59;;;;;;;1.83;1.20;;;1.50;63.40;;;;;;5039577;28;20028;-72
2021/01/08 08:16:36;;;;;;;2.40;1.65;;;1.50;63.10;;;;;;5039701;28;20472;-71
2021/01/08 08:19:02;;;;;;;1.30;1.00;;;1.60;63.60;;;;;;5039548;28;20026;-72
2021/01/08 08:21:28;;;;;;;1.70;1.00;;;1.60;63.00;;;;;;5039482;28;20061;-72
2021/01/08 08:23:58;;;;;;;2.35;1.30;;;1.80;62.70;;;;;;5039412;28;20057;-71
2021/01/08 08:26:25;;;;;;;2.50;1.27;;;1.80;62.50;;;;;;5039277;28;20095;-72
2021/01/08 08:29:17;;;;;;;2.33;1.45;;;1.90;61.60;;;;;;5039280;28;20117;-72
2021/01/08 08:31:49;;;;;;;2.33;1.25;;;1.90;62.70;;;;;;5039123;28;20030;-72
2021/01/08 08:34:27;;;;;;;2.22;1.48;;;2.00;61.70;;;;;;5039476;28;20029;-72
2021/01/08 08:36:53;;;;;;;2.10;1.20;;;2.00;62.80;;;;;;5039945;28;20314;-72
2021/01/08 08:39:18;;;;;;;2.13;1.20;;;1.90;61.50;;;;;;5039138;28;20033;-72
2021/01/08 08:41:46;;;;;;;2.15;1.55;;;1.70;63.20;;;;;;5037777;28;20321;-71
2021/01/08 08:44:17;;;;;;;4.60;1.15;;;1.50;62.50;;;;;;5037986;28;20025;-71
2021/01/08 08:46:45;;;;;;;1.58;1.10;;;1.40;62.60;;;;;;5039198;28;20337;-72
2021/01/08 08:49:15;;;;;;;3.03;2.03;;;1.40;62.40;;;;;;5038866;28;20029;-71
2021/01/08 08:51:51;;;;;;;1.63;1.17;;;1.40;62.70;;;;;;5038942;28;20112;-72
2021/01/08 08:54:17;;;;;;;2.63;0.98;;;1.60;62.10;;;;;;5037855;28;20040;-72
2021/01/08 08:56:56;;;;;;;1.63;1.10;;;1.70;62.90;;;;;;5039280;28;20026;-72
2021/01/08 08:59:44;;;;;;;1.33;1.00;;;2.00;62.40;;;;;;5039111;28;20102;-71
2021/01/08 09:02:22;;;;;;;1.58;0.98;;;1.90;61.70;;;;;;5038732;28;20450;-71
2021/01/08 09:04:56;;;;;;;1.98;1.10;;;1.90;62.30;;;;;;5038664;28;20190;-72
2021/01/08 09:07:53;;;;;;;2.10;1.05;;;2.00;62.90;;;;;;5037618;28;20033;-72
2021/01/08 09:10:37;;;;;;;2.33;1.10;;;2.30;61.30;;;;;;5038114;28;20041;-72
2021/01/08 09:13:33;;;;;;;2.22;1.13;;;2.40;60.30;;;;;;5038873;28;20375;-71
2021/01/08 09:16:15;;;;;;;2.15;1.40;;;2.30;58.90;;;;;;5038257;28;20044;-72
2021/01/08 09:19:02;;;;;;;2.70;1.08;;;2.00;59.40;;;;;;5038854;28;20096;-72
2021/01/08 09:21:31;;;;;;;1.67;1.20;;;1.90;60.00;;;;;;5038322;28;20025;-72
2021/01/08 09:24:04;;;;;;;1.77;1.13;;;2.00;60.40;;;;;;5037253;28;20045;-72
2021/01/08 09:26:31;;;;;;;1.77;1.08;;;2.20;59.60;;;;;;5037005;28;20046;-72
2021/01/08 09:28:57;;;;;;;1.85;1.20;;;2.30;58.70;;;;;;5038140;28;20041;-72
2021/01/08 09:31:40;;;;;;;2.28;1.38;;;2.30;59.60;;;;;;5038180;28;20025;-72
2021/01/08 09:34:06;;;;;;;1.42;1.08;;;2.30;59.40;;;;;;5038211;28;20020;-72
2021/01/08 09:36:37;;;;;;;2.53;1.40;;;2.40;59.50;;;;;;5038078;28;20021;-72
2021/01/08 09:39:06;;;;;;;1.52;1.00;;;2.40;59.60;;;;;;5038242;28;20022;-72
2021/01/08 09:41:35;;;;;;;1.52;1.10;;;2.60;58.50;;;;;;5037962;28;20040;-72
2021/01/08 09:44:03;;;;;;;1.45;1.00;;;2.80;58.60;;;;;;5038164;28;20049;-72
2021/01/08 09:46:29;;;;;;;1.48;0.82;;;3.50;56.50;;;;;;5037097;28;20348;-72
2021/01/08 09:49:04;;;;;;;1.40;1.10;;;4.30;52.70;;;;;;5037766;28;20109;-72
2021/01/08 09:51:30;;;;;;;1.50;1.00;;;4.80;51.80;;;;;;5037666;28;20402;-72
2021/01/08 09:53:56;;;;;;;1.40;0.90;;;5.70;51.90;;;;;;5038038;28;20052;-72
2021/01/08 09:56:22;;;;;;;0.98;0.73;;;6.40;49.00;;;;;;5038058;28;20422;-73
2021/01/08 09:59:11;;;;;;;1.27;1.00;;;7.00;48.90;;;;;;5037878;28;20041;-72
2021/01/08 10:01:57;;;;;;;1.40;1.00;;;7.10;46.80;;;;;;5036584;28;20029;-73
2021/01/08 10:04:31;;;;;;;1.77;1.05;;;7.10;46.90;;;;;;5037728;28;20029;-73
2021/01/08 10:07:04;;;;;;;1.55;0.80;;;6.70;47.70;;;;;;5037514;28;20022;-73
2021/01/08 10:09:52;;;;;;;1.38;0.80;;;6.60;48.70;;;;;;5040622;28;20087;-72
2021/01/08 10:12:20;;;;;;;1.20;0.90;;;6.00;48.90;;;;;;5041117;28;20314;-72
2021/01/08 10:14:46;;;;;;;1.25;0.85;;;5.60;50.00;;;;;;5037336;28;20079;-72
2021/01/08 10:17:14;;;;;;;1.20;0.90;;;5.70;51.20;;;;;;5037346;28;20017;-72
2021/01/08 10:19:42;;;;;;;1.95;1.20;;;5.40;50.60;;;;;;5036204;28;20083;-72
2021/01/08 10:22:08;;;;;;;1.88;1.25;;;5.20;50.80;;;;;;5037222;28;20033;-72
2021/01/08 10:24:34;;;;;;;1.50;1.13;;;5.60;51.30;;;;;;5036077;28;20033;-72
2021/01/08 10:27:01;;;;;;;1.10;0.80;;;5.80;49.80;;;;;;5037028;28;20120;-72
2021/01/08 10:29:32;;;;;;;2.25;1.13;;;6.30;48.90;;;;;;5036973;28;20049;-72
2021/01/08 10:32:03;;;;;;;1.45;0.90;;;6.10;48.30;;;;;;5036088;28;20029;-72
2021/01/08 10:34:33;;;;;;;1.33;1.02;;;6.00;48.40;;;;;;5037094;28;20406;-70
2021/01/08 10:36:59;;;;;;;1.10;0.82;;;6.10;47.80;;;;;;5037036;28;20021;-70
2021/01/08 10:39:24;;;;;;;1.90;0.82;;;6.30;47.20;;;;;;5035943;28;20033;-72
2021/01/08 10:41:50;;;;;;;1.10;0.80;;;6.40;47.90;;;;;;5037239;28;20021;-72
2021/01/08 10:44:16;;;;;;;0.93;0.70;;;6.60;47.00;;;;;;5036928;28;20030;-70
2021/01/08 10:46:41;;;;;;;1.33;0.63;;;7.00;45.60;;;;;;5037124;28;20025;-72
2021/01/08 10:49:07;;;;;;;1.73;0.73;;;6.30;46.50;;;;;;5036977;28;20116;-70
2021/01/08 10:51:32;;;;;;;1.67;1.10;;;5.50;47.20;;;;;;5036789;28;20052;-70
2021/01/08 10:53:58;;;;;;;0.98;0.80;;;5.20;49.60;;;;;;5037086;28;20029;-71
2021/01/08 10:56:31;;;;;;;1.45;0.88;;;5.10;49.40;;;;;;5036713;28;20421;-71
2021/01/08 10:58:57;;;;;;;1.55;1.00;;;5.40;49.10;;;;;;5036740;28;20033;-71
2021/01/08 11:01:24;;;;;;;1.35;0.75;;;6.00;47.70;;;;;;5036643;28;20040;-72
2021/01/08 11:03:50;;;;;;;1.52;0.85;;;6.40;47.30;;;;;;5035845;28;20413;-72
2021/01/08 11:06:17;;;;;;;1.40;0.90;;;6.90;46.90;;;;;;5036652;28;20041;-71
2021/01/08 11:08:43;;;;;;;1.40;0.95;;;7.20;45.20;;;;;;5036536;28;20083;-71
2021/01/08 11:11:09;;;;;;;1.67;0.90;;;7.40;45.30;;;;;;5036598;28;20017;-70
2021/01/08 11:13:35;;;;;;;1.30;0.70;;;7.80;46.30;;;;;;5036824;28;20087;-71
2021/01/08 11:16:00;;;;;;;0.93;0.60;;;8.40;44.20;;;;;;5036540;28;20405;-71
2021/01/08 11:18:26;;;;;;;1.25;0.85;;;8.60;43.00;;;;;;5036524;28;20056;-71
2021/01/08 11:20:51;;;;;;;5.13;0.93;;;8.50;44.10;;;;;;5036513;28;20029;-71
2021/01/08 11:23:17;;;;;;;1.38;0.98;;;8.50;43.60;;;;;;5036467;28;20070;-71
2021/01/08 11:25:43;;;;;;;1.67;1.00;;;8.90;43.90;;;;;;5036327;28;20037;-71
2021/01/08 11:28:08;;;;;;;1.23;1.00;;;8.60;43.40;;;;;;5036357;28;20365;-71
2021/01/08 11:30:34;;;;;;;1.40;0.80;;;8.40;44.10;;;;;;5036379;28;20018;-71
2021/01/08 11:33:00;;;;;;;1.23;1.00;;;8.20;44.90;;;;;;5036410;28;20029;-71
2021/01/08 11:35:25;;;;;;;1.90;1.08;;;8.70;45.10;;;;;;5036315;28;20067;-71
2021/01/08 11:37:53;;;;;;;1.67;0.90;;;8.70;43.90;;;;;;5036435;28;20097;-71
2021/01/08 11:40:18;;;;;;;2.80;0.73;;;8.60;43.10;;;;;;5036324;28;20033;-71
2021/01/08 11:42:44;;;;;;;1.35;0.90;;;9.00;45.50;;;;;;5036543;28;20492;-71
2021/01/08 11:45:10;;;;;;;1.17;0.77;;;9.80;45.10;;;;;;5035201;28;20436;-71
2021/01/08 11:47:36;;;;;;;0.90;0.70;;;10.10;43.20;;;;;;5036261;28;20056;-71
2021/01/08 11:50:04;;;;;;;1.08;0.73;;;9.60;41.80;;;;;;5035070;28;20425;-71
2021/01/08 11:52:30;;;;;;;1.33;0.88;;;9.70;42.30;;;;;;5036147;28;20037;-71
2021/01/08 11:54:55;;;;;;;2.47;1.42;;;9.70;43.40;;;;;;5036327;28;20017;-71
2021/01/08 11:57:21;;;;;;;1.40;1.00;;;10.00;43.60;;;;;;5036159;28;20091;-71
2021/01/08 11:59:47;;;;;;;1.40;0.93;;;10.50;46.50;;;;;;5036063;28;20064;-71
2021/01/08 12:02:12;;;;;;;1.60;0.88;;;10.80;43.30;;;;;;5036093;28;20033;-71
2021/01/08 12:04:38;;;;;;;1.50;0.93;;;10.90;44.40;;;;;;5036162;28;20030;-71
2021/01/08 12:07:04;;;;;;;1.33;0.95;;;10.90;42.90;;;;;;5036342;28;20033;-71
2021/01/08 12:09:31;;;;;;;1.63;1.15;;;11.00;44.70;;;;;;5036036;28;20036;-72
2021/01/08 12:12:01;;;;;;;1.33;0.90;;;11.30;42.60;;;;;;5036312;28;20346;-71
2021/01/08 12:14:28;;;;;;;2.22;1.25;;;11.70;42.40;;;;;;5036253;28;20454;-70
2021/01/08 12:16:53;;;;;;;3.80;1.10;;;11.90;41.50;;;;;;5039590;28;20064;-71
2021/01/08 12:19:20;;;;;;;1.80;0.95;;;12.00;40.10;;;;;;5039588;28;20059;-71
2021/01/08 12:21:50;;;;;;;2.13;1.27;;;11.90;41.00;;;;;;5038504;28;20072;-71
2021/01/08 12:24:15;;;;;;;1.35;0.82;;;11.50;41.30;;;;;;5039697;28;20026;-70
2021/01/08 12:26:41;;;;;;;1.85;0.98;;;10.90;42.10;;;;;;5039349;28;20140;-70
2021/01/08 12:29:09;;;;;;;1.27;0.75;;;10.30;42.50;;;;;;5039291;28;20385;-70
2021/01/08 12:31:35;;;;;;;1.20;0.82;;;10.00;43.20;;;;;;5039368;28;20104;-70
2021/01/08 12:34:00;;;;;;;1.35;0.90;;;10.20;44.10;;;;;;5039254;28;20410;-71
2021/01/08 12:36:26;;;;;;;1.08;0.70;;;10.60;45.10;;;;;;5039173;28;20070;-71
2021/01/08 12:38:52;;;;;;;1.27;0.80;;;10.60;43.30;;;;;;5039158;28;20029;-70
2021/01/08 12:41:18;;;;;;;2.10;1.10;;;10.40;40.60;;;;;;5039255;28;20029;-71
2021/01/08 12:43:45;;;;;;;1.52;1.00;;;10.20;42.80;;;;;;5039120;28;20025;-72
2021/01/08 12:46:12;;;;;;;1.85;1.27;;;10.20;44.50;;;;;;5039068;28;20148;-70
2021/01/08 12:48:38;;;;;;;1.63;1.02;;;10.00;46.60;;;;;;5038876;28;20029;-72
2021/01/08 12:51:04;;;;;;;2.13;1.10;;;10.00;43.40;;;;;;5038993;28;20025;-70
2021/01/08 12:53:30;;;;;;;2.65;1.17;;;10.10;44.10;;;;;;5038981;28;20041;-71
2021/01/08 12:55:55;;;;;;;2.05;1.17;;;9.60;43.80;;;;;;5038860;28;20406;-72
2021/01/08 12:58:21;;;;;;;1.50;1.00;;;9.10;44.30;;;;;;5038846;28;20049;-71
2021/01/08 13:00:50;;;;;;;1.92;1.30;;;8.60;46.80;;;;;;5039023;28;20029;-71